sensor_id;sensor_type;location;lat;lon;timestamp;pressure;altitude;pressure_sealevel;temperature;humidity
9923;BME280;5000;50.546;9.720;2024-01-15T00:01:08;96694.16;;;18.08;52.20
9923;BME280;5000;50.546;9.720;2024-01-15T00:06:01;96700.50;;;18.07;52.12
9923;BME280;5000;50.546;9.720;2024-01-15T00:10:54;96694.47;;;18.05;51.92
9923;BME280;5000;50.546;9.720;2024-01-15T00:15:49;96683.09;;;18.03;51.90
9923;BME280;5000;50.546;9.720;2024-01-15T00:20:42;96677.06;;;18.01;51.88
9923;BME280;5000;50.546;9.720;2024-01-15T00:25:35;96671.22;;;17.98;52.27
9923;BME280;5000;50.546;9.720;2024-01-15T00:30:28;96669.69;;;17.95;52.30
9923;BME280;5000;50.546;9.720;2024-01-15T00:35:22;96678.00;;;17.92;51.92
9923;BME280;5000;50.546;9.720;2024-01-15T00:40:15;96670.00;;;17.92;52.12
9923;BME280;5000;50.546;9.720;2024-01-15T00:45:09;96664.81;;;17.90;52.22
9923;BME280;5000;50.546;9.720;2024-01-15T00:50:02;96654.44;;;17.87;51.92
9923;BME280;5000;50.546;9.720;2024-01-15T00:54:57;96651.91;;;17.86;52.21
9923;BME280;5000;50.546;9.720;2024-01-15T00:59:50;96649.56;;;17.83;52.05
9923;BME280;5000;50.546;9.720;2024-01-15T01:04:43;96646.19;;;17.80;52.10
9923;BME280;5000;50.546;9.720;2024-01-15T01:09:35;96644.53;;;17.79;52.10
9923;BME280;5000;50.546;9.720;2024-01-15T01:14:30;96643.84;;;17.77;52.36
9923;BME280;5000;50.546;9.720;2024-01-15T01:19:23;96649.53;;;17.74;52.12
9923;BME280;5000;50.546;9.720;2024-01-15T01:24:17;96637.16;;;17.73;52.01
9923;BME280;5000;50.546;9.720;2024-01-15T01:29:10;96631.97;;;17.72;52.33
9923;BME280;5000;50.546;9.720;2024-01-15T01:34:04;96629.44;;;17.70;52.19
9923;BME280;5000;50.546;9.720;2024-01-15T01:38:57;96623.28;;;17.70;52.07
9923;BME280;5000;50.546;9.720;2024-01-15T01:43:50;96616.06;;;17.70;52.13
9923;BME280;5000;50.546;9.720;2024-01-15T01:48:43;96597.69;;;17.67;52.20
9923;BME280;5000;50.546;9.720;2024-01-15T01:53:37;96598.69;;;17.66;51.92
9923;BME280;5000;50.546;9.720;2024-01-15T01:58:31;96606.03;;;17.64;52.08
9923;BME280;5000;50.546;9.720;2024-01-15T02:03:25;96602.69;;;17.62;52.16
9923;BME280;5000;50.546;9.720;2024-01-15T02:08:18;96608.03;;;17.62;52.00
9923;BME280;5000;50.546;9.720;2024-01-15T02:13:12;96616.03;;;17.62;51.92
9923;BME280;5000;50.546;9.720;2024-01-15T02:18:06;96629.72;;;17.59;52.00
9923;BME280;5000;50.546;9.720;2024-01-15T02:23:07;96615.72;;;17.57;52.31
9923;BME280;5000;50.546;9.720;2024-01-15T02:28:01;96607.69;;;17.57;52.13
9923;BME280;5000;50.546;9.720;2024-01-15T02:32:54;96624.72;;;17.56;52.25
9923;BME280;5000;50.546;9.720;2024-01-15T02:37:46;96609.69;;;17.55;52.13
9923;BME280;5000;50.546;9.720;2024-01-15T02:42:42;96617.00;;;17.53;52.06
9923;BME280;5000;50.546;9.720;2024-01-15T02:47:36;96613.50;;;17.52;52.18
9923;BME280;5000;50.546;9.720;2024-01-15T02:52:29;96609.00;;;17.53;52.20
9923;BME280;5000;50.546;9.720;2024-01-15T02:57:22;96609.31;;;17.49;52.28
9923;BME280;5000;50.546;9.720;2024-01-15T03:02:16;96608.47;;;17.49;51.92
9923;BME280;5000;50.546;9.720;2024-01-15T03:07:09;96601.63;;;17.46;52.26
9923;BME280;5000;50.546;9.720;2024-01-15T03:12:02;96602.63;;;17.45;51.97
9923;BME280;5000;50.546;9.720;2024-01-15T03:16:55;96609.66;;;17.46;52.20
9923;BME280;5000;50.546;9.720;2024-01-15T03:21:49;96602.94;;;17.42;51.95
9923;BME280;5000;50.546;9.720;2024-01-15T03:26:42;96603.63;;;17.44;51.92
9923;BME280;5000;50.546;9.720;2024-01-15T03:31:35;96615.63;;;17.40;52.06
9923;BME280;5000;50.546;9.720;2024-01-15T03:36:28;96620.81;;;17.42;51.88
9923;BME280;5000;50.546;9.720;2024-01-15T03:41:22;96623.97;;;17.37;52.16
9923;BME280;5000;50.546;9.720;2024-01-15T03:46:15;96631.13;;;17.37;51.90
9923;BME280;5000;50.546;9.720;2024-01-15T03:51:08;96624.66;;;17.39;51.90
9923;BME280;5000;50.546;9.720;2024-01-15T03:56:02;96611.59;;;17.36;52.21
9923;BME280;5000;50.546;9.720;2024-01-15T04:00:56;96620.63;;;17.35;52.07
9923;BME280;5000;50.546;9.720;2024-01-15T04:05:49;96621.78;;;17.32;52.19
9923;BME280;5000;50.546;9.720;2024-01-15T04:10:42;96619.94;;;17.33;52.17
9923;BME280;5000;50.546;9.720;2024-01-15T04:15:35;96618.25;;;17.32;51.86
9923;BME280;5000;50.546;9.720;2024-01-15T04:20:29;96619.41;;;17.29;52.23
9923;BME280;5000;50.546;9.720;2024-01-15T04:25:22;96624.75;;;17.29;52.00
9923;BME280;5000;50.546;9.720;2024-01-15T04:30:15;96622.94;;;17.30;52.04
9923;BME280;5000;50.546;9.720;2024-01-15T04:35:08;96617.91;;;17.27;51.85
9923;BME280;5000;50.546;9.720;2024-01-15T04:40:03;96602.88;;;17.26;52.07
9923;BME280;5000;50.546;9.720;2024-01-15T04:44:56;96611.06;;;17.24;51.88
9923;BME280;5000;50.546;9.720;2024-01-15T04:49:49;96602.34;;;17.22;52.04
9923;BME280;5000;50.546;9.720;2024-01-15T04:54:42;96607.84;;;17.21;51.85
9923;BME280;5000;50.546;9.720;2024-01-15T04:59:36;96607.84;;;17.21;51.95
9923;BME280;5000;50.546;9.720;2024-01-15T05:04:29;96601.50;;;17.22;51.89
9923;BME280;5000;50.546;9.720;2024-01-15T05:09:22;96589.81;;;17.23;51.88
9923;BME280;5000;50.546;9.720;2024-01-15T05:14:15;96584.34;;;17.32;51.80
9923;BME280;5000;50.546;9.720;2024-01-15T05:19:10;96583.06;;;17.45;51.65
9923;BME280;5000;50.546;9.720;2024-01-15T05:24:03;96578.31;;;17.65;51.59
9923;BME280;5000;50.546;9.720;2024-01-15T05:28:56;96584.00;;;17.78;51.37
9923;BME280;5000;50.546;9.720;2024-01-15T05:33:49;96582.38;;;17.86;51.02
9923;BME280;5000;50.546;9.720;2024-01-15T05:38:44;96584.25;;;17.51;46.73
9923;BME280;5000;50.546;9.720;2024-01-15T05:43:37;96585.66;;;17.71;48.44
9923;BME280;5000;50.546;9.720;2024-01-15T05:48:30;96583.03;;;17.88;48.47
9923;BME280;5000;50.546;9.720;2024-01-15T05:53:23;96597.81;;;18.00;48.50
9923;BME280;5000;50.546;9.720;2024-01-15T05:58:17;96588.97;;;18.08;48.32
9923;BME280;5000;50.546;9.720;2024-01-15T06:03:10;96582.78;;;18.16;49.04
9923;BME280;5000;50.546;9.720;2024-01-15T06:08:03;96579.28;;;18.23;49.10
9923;BME280;5000;50.546;9.720;2024-01-15T06:12:56;96588.81;;;18.34;49.28
9923;BME280;5000;50.546;9.720;2024-01-15T06:17:50;96596.53;;;18.46;49.43
9923;BME280;5000;50.546;9.720;2024-01-15T06:22:43;96589.97;;;18.56;49.70
9923;BME280;5000;50.546;9.720;2024-01-15T06:27:36;96593.31;;;18.67;49.73
9923;BME280;5000;50.546;9.720;2024-01-15T06:32:29;96587.13;;;18.75;50.18
9923;BME280;5000;50.546;9.720;2024-01-15T06:37:23;96578.41;;;18.81;49.96
9923;BME280;5000;50.546;9.720;2024-01-15T06:42:16;96565.50;;;18.84;50.32
9923;BME280;5000;50.546;9.720;2024-01-15T06:47:09;96572.03;;;18.90;50.28
9923;BME280;5000;50.546;9.720;2024-01-15T06:52:02;96569.88;;;18.94;50.36
9923;BME280;5000;50.546;9.720;2024-01-15T06:56:57;96568.53;;;18.98;50.48
9923;BME280;5000;50.546;9.720;2024-01-15T07:01:50;96558.50;;;19.00;50.83
9923;BME280;5000;50.546;9.720;2024-01-15T07:06:43;96566.03;;;19.04;50.73
9923;BME280;5000;50.546;9.720;2024-01-15T07:11:36;96558.66;;;19.07;50.68
9923;BME280;5000;50.546;9.720;2024-01-15T07:16:30;96557.47;;;19.09;51.09
9923;BME280;5000;50.546;9.720;2024-01-15T07:21:28;96563.84;;;19.08;50.93
9923;BME280;5000;50.546;9.720;2024-01-15T07:26:21;96557.47;;;19.09;51.11
9923;BME280;5000;50.546;9.720;2024-01-15T07:31:15;96557.47;;;19.09;50.90
9923;BME280;5000;50.546;9.720;2024-01-15T07:36:09;96563.66;;;19.10;50.99
9923;BME280;5000;50.546;9.720;2024-01-15T07:41:02;96575.22;;;19.10;51.12
9923;BME280;5000;50.546;9.720;2024-01-15T07:45:55;96585.94;;;19.10;51.25
9923;BME280;5000;50.546;9.720;2024-01-15T07:50:48;96576.91;;;19.11;51.07
9923;BME280;5000;50.546;9.720;2024-01-15T07:55:43;96582.25;;;19.11;50.89
9923;BME280;5000;50.546;9.720;2024-01-15T08:00:37;96588.09;;;19.15;50.66
9923;BME280;5000;50.546;9.720;2024-01-15T08:05:30;96602.16;;;19.17;50.89
9923;BME280;5000;50.546;9.720;2024-01-15T08:10:24;96595.63;;;19.19;51.18
9923;BME280;5000;50.546;9.720;2024-01-15T08:15:18;96598.81;;;19.23;51.11
9923;BME280;5000;50.546;9.720;2024-01-15T08:20:11;96599.47;;;19.25;51.12
9923;BME280;5000;50.546;9.720;2024-01-15T08:25:04;96591.41;;;19.33;51.65
9923;BME280;5000;50.546;9.720;2024-01-15T08:29:58;96596.41;;;19.37;51.59
9923;BME280;5000;50.546;9.720;2024-01-15T08:34:52;96575.44;;;19.40;51.45
9923;BME280;5000;50.546;9.720;2024-01-15T08:39:45;96562.56;;;19.44;51.49
9923;BME280;5000;50.546;9.720;2024-01-15T08:44:40;96564.84;;;19.47;51.74
9923;BME280;5000;50.546;9.720;2024-01-15T08:49:35;96556.47;;;19.50;51.81
9923;BME280;5000;50.546;9.720;2024-01-15T08:54:29;96572.22;;;19.53;51.55
9923;BME280;5000;50.546;9.720;2024-01-15T08:59:22;96578.22;;;19.55;51.59
9923;BME280;5000;50.546;9.720;2024-01-15T09:04:17;96574.53;;;19.56;51.76
9923;BME280;5000;50.546;9.720;2024-01-15T09:09:11;96580.56;;;19.58;51.80
9923;BME280;5000;50.546;9.720;2024-01-15T09:14:05;96571.53;;;19.59;51.83
9923;BME280;5000;50.546;9.720;2024-01-15T09:18:58;96581.25;;;19.60;52.00
9923;BME280;5000;50.546;9.720;2024-01-15T09:23:51;96579.38;;;19.61;51.93
9923;BME280;5000;50.546;9.720;2024-01-15T09:28:44;96594.28;;;19.63;52.01
9923;BME280;5000;50.546;9.720;2024-01-15T09:33:38;96593.28;;;19.64;52.08
9923;BME280;5000;50.546;9.720;2024-01-15T09:38:31;96587.91;;;19.64;52.24
9923;BME280;5000;50.546;9.720;2024-01-15T09:43:24;96573.50;;;19.65;52.24
9923;BME280;5000;50.546;9.720;2024-01-15T09:48:17;96564.63;;;19.65;52.26
9923;BME280;5000;50.546;9.720;2024-01-15T09:53:12;96564.44;;;19.66;52.21
9923;BME280;5000;50.546;9.720;2024-01-15T09:58:07;96566.59;;;19.71;52.09
9923;BME280;5000;50.546;9.720;2024-01-15T10:03:00;96559.88;;;19.75;52.31
9923;BME280;5000;50.546;9.720;2024-01-15T10:07:54;96552.31;;;19.79;52.20
9923;BME280;5000;50.546;9.720;2024-01-15T10:12:48;96550.94;;;19.83;52.13
9923;BME280;5000;50.546;9.720;2024-01-15T10:17:41;96545.41;;;19.85;52.37
9923;BME280;5000;50.546;9.720;2024-01-15T10:22:35;96541.56;;;19.87;52.30
9923;BME280;5000;50.546;9.720;2024-01-15T10:27:29;96524.59;;;19.87;52.16
9923;BME280;5000;50.546;9.720;2024-01-15T10:32:23;96527.13;;;19.88;52.24
9923;BME280;5000;50.546;9.720;2024-01-15T10:37:18;96523.44;;;19.89;52.23
9923;BME280;5000;50.546;9.720;2024-01-15T10:42:11;96516.22;;;19.90;52.50
9923;BME280;5000;50.546;9.720;2024-01-15T10:47:05;96517.06;;;19.90;52.41
9923;BME280;5000;50.546;9.720;2024-01-15T10:51:59;96511.69;;;19.82;52.10
9923;BME280;5000;50.546;9.720;2024-01-15T10:56:53;96496.63;;;19.81;51.42
9923;BME280;5000;50.546;9.720;2024-01-15T11:01:47;96493.75;;;19.82;51.17
9923;BME280;5000;50.546;9.720;2024-01-15T11:06:42;96488.22;;;19.84;51.43
9923;BME280;5000;50.546;9.720;2024-01-15T11:11:41;96487.91;;;19.87;51.37
9923;BME280;5000;50.546;9.720;2024-01-15T11:21:44;96473.28;;;19.90;51.89
9923;BME280;5000;50.546;9.720;2024-01-15T11:26:44;96479.50;;;19.90;51.73
9923;BME280;5000;50.546;9.720;2024-01-15T11:31:58;96471.25;;;19.92;52.12
9923;BME280;5000;50.546;9.720;2024-01-15T11:37:02;96478.44;;;19.91;51.90
9923;BME280;5000;50.546;9.720;2024-01-15T11:42:02;96461.34;;;19.92;52.23
9923;BME280;5000;50.546;9.720;2024-01-15T11:47:00;96469.25;;;19.94;52.18
9923;BME280;5000;50.546;9.720;2024-01-15T11:51:55;96471.72;;;19.95;52.18
9923;BME280;5000;50.546;9.720;2024-01-15T11:56:50;96466.38;;;19.95;52.50
9923;BME280;5000;50.546;9.720;2024-01-15T12:01:46;96461.81;;;19.96;52.51
9923;BME280;5000;50.546;9.720;2024-01-15T12:06:40;96450.63;;;19.92;52.47
9923;BME280;5000;50.546;9.720;2024-01-15T12:11:33;96436.91;;;19.87;51.95
9923;BME280;5000;50.546;9.720;2024-01-15T12:16:28;96436.56;;;19.90;51.41
9923;BME280;5000;50.546;9.720;2024-01-15T12:21:22;96429.81;;;19.94;51.54
9923;BME280;5000;50.546;9.720;2024-01-15T12:26:18;96446.38;;;19.98;51.69
9923;BME280;5000;50.546;9.720;2024-01-15T12:31:12;96437.97;;;20.01;52.01
9923;BME280;5000;50.546;9.720;2024-01-15T12:36:05;96429.56;;;20.04;51.89
9923;BME280;5000;50.546;9.720;2024-01-15T12:41:01;96425.69;;;20.07;51.91
9923;BME280;5000;50.546;9.720;2024-01-15T12:45:53;96432.34;;;20.11;52.28
9923;BME280;5000;50.546;9.720;2024-01-15T12:50:47;96435.50;;;20.15;52.20
9923;BME280;5000;50.546;9.720;2024-01-15T12:55:40;96440.31;;;20.19;52.23
9923;BME280;5000;50.546;9.720;2024-01-15T13:00:34;96432.91;;;20.21;52.17
9923;BME280;5000;50.546;9.720;2024-01-15T13:05:27;96442.47;;;20.24;52.41
9923;BME280;5000;50.546;9.720;2024-01-15T13:10:21;96447.66;;;20.25;52.31
9923;BME280;5000;50.546;9.720;2024-01-15T13:15:16;96449.16;;;20.28;52.47
9923;BME280;5000;50.546;9.720;2024-01-15T13:20:11;96448.13;;;20.29;52.60
9923;BME280;5000;50.546;9.720;2024-01-15T13:25:05;96457.84;;;20.30;52.56
9923;BME280;5000;50.546;9.720;2024-01-15T13:30:00;96454.16;;;20.31;52.54
9923;BME280;5000;50.546;9.720;2024-01-15T13:34:54;96447.94;;;20.31;52.51
9923;BME280;5000;50.546;9.720;2024-01-15T13:39:48;96456.84;;;20.31;52.78
9923;BME280;5000;50.546;9.720;2024-01-15T13:44:41;96454.16;;;20.31;52.83
9923;BME280;5000;50.546;9.720;2024-01-15T13:49:34;96444.25;;;20.32;52.81
9923;BME280;5000;50.546;9.720;2024-01-15T13:54:28;96460.53;;;20.30;52.89
9923;BME280;5000;50.546;9.720;2024-01-15T13:59:33;96464.03;;;20.31;53.02
9923;BME280;5000;50.546;9.720;2024-01-15T14:04:26;96469.41;;;20.31;52.84
9923;BME280;5000;50.546;9.720;2024-01-15T14:09:19;96478.47;;;20.29;53.02
9923;BME280;5000;50.546;9.720;2024-01-15T14:14:13;96478.47;;;20.29;52.98
9923;BME280;5000;50.546;9.720;2024-01-15T14:19:10;96469.81;;;20.27;53.14
9923;BME280;5000;50.546;9.720;2024-01-15T14:24:03;96479.03;;;20.25;53.18
9923;BME280;5000;50.546;9.720;2024-01-15T14:28:56;96471.34;;;20.22;53.14
9923;BME280;5000;50.546;9.720;2024-01-15T14:33:49;96483.94;;;20.21;53.13
9923;BME280;5000;50.546;9.720;2024-01-15T14:38:44;96488.63;;;20.19;53.09
9923;BME280;5000;50.546;9.720;2024-01-15T14:43:37;96488.00;;;20.17;53.26
9923;BME280;5000;50.546;9.720;2024-01-15T14:48:29;96494.38;;;20.16;52.80
9923;BME280;5000;50.546;9.720;2024-01-15T14:53:23;96498.09;;;20.15;52.79
9923;BME280;5000;50.546;9.720;2024-01-15T14:58:17;96502.78;;;20.13;53.06
9923;BME280;5000;50.546;9.720;2024-01-15T15:03:10;96514.53;;;20.12;52.80
9923;BME280;5000;50.546;9.720;2024-01-15T15:08:05;96519.91;;;20.12;52.84
9923;BME280;5000;50.546;9.720;2024-01-15T15:13:00;96519.09;;;20.11;52.99
9923;BME280;5000;50.546;9.720;2024-01-15T15:17:55;96527.28;;;20.10;52.82
9923;BME280;5000;50.546;9.720;2024-01-15T15:22:48;96528.16;;;20.10;52.75
9923;BME280;5000;50.546;9.720;2024-01-15T15:27:41;96536.38;;;20.09;52.65
9923;BME280;5000;50.546;9.720;2024-01-15T15:32:34;96539.91;;;20.09;52.84
9923;BME280;5000;50.546;9.720;2024-01-15T15:37:29;96555.19;;;20.09;52.79
9923;BME280;5000;50.546;9.720;2024-01-15T15:42:22;96557.84;;;20.09;52.76
9923;BME280;5000;50.546;9.720;2024-01-15T15:47:15;96573.31;;;20.07;52.56
9923;BME280;5000;50.546;9.720;2024-01-15T15:52:09;96570.63;;;20.07;52.59
9923;BME280;5000;50.546;9.720;2024-01-15T15:57:03;96593.09;;;20.06;52.56
9923;BME280;5000;50.546;9.720;2024-01-15T16:01:56;96586.59;;;20.00;52.73
9923;BME280;5000;50.546;9.720;2024-01-15T16:06:49;96600.53;;;19.95;52.90
9923;BME280;5000;50.546;9.720;2024-01-15T16:11:42;96598.56;;;19.89;52.82
9923;BME280;5000;50.546;9.720;2024-01-15T16:16:37;96593.84;;;19.83;53.06
9923;BME280;5000;50.546;9.720;2024-01-15T16:21:50;96606.31;;;19.76;52.78
9923;BME280;5000;50.546;9.720;2024-01-15T16:27:04;96615.88;;;19.70;52.73
9923;BME280;5000;50.546;9.720;2024-01-15T16:32:05;96626.81;;;19.69;52.96
9923;BME280;5000;50.546;9.720;2024-01-15T16:36:59;96640.22;;;19.69;52.80
9923;BME280;5000;50.546;9.720;2024-01-15T16:41:52;96644.38;;;19.71;52.97
9923;BME280;5000;50.546;9.720;2024-01-15T16:46:45;96646.38;;;19.77;52.91
9923;BME280;5000;50.546;9.720;2024-01-15T16:51:39;96645.69;;;19.84;52.45
9923;BME280;5000;50.546;9.720;2024-01-15T16:56:32;96650.19;;;19.91;52.39
9923;BME280;5000;50.546;9.720;2024-01-15T17:01:25;96651.53;;;19.95;52.67
9923;BME280;5000;50.546;9.720;2024-01-15T17:06:18;96652.19;;;19.97;52.50
9923;BME280;5000;50.546;9.720;2024-01-15T17:11:13;96659.56;;;19.95;52.45
9923;BME280;5000;50.546;9.720;2024-01-15T17:16:06;96667.16;;;19.92;52.73
9923;BME280;5000;50.546;9.720;2024-01-15T17:20:59;96669.34;;;19.88;52.67
9923;BME280;5000;50.546;9.720;2024-01-15T17:25:52;96676.53;;;19.88;52.41
9923;BME280;5000;50.546;9.720;2024-01-15T17:30:47;96667.47;;;19.89;52.33
9923;BME280;5000;50.546;9.720;2024-01-15T17:35:42;96686.75;;;19.92;52.63
9923;BME280;5000;50.546;9.720;2024-01-15T17:40:35;96683.53;;;19.97;52.22
9923;BME280;5000;50.546;9.720;2024-01-15T17:45:28;96685.69;;;20.02;52.48
9923;BME280;5000;50.546;9.720;2024-01-15T17:50:22;96702.28;;;20.05;52.47
9923;BME280;5000;50.546;9.720;2024-01-15T17:55:15;96705.63;;;20.07;52.41
9923;BME280;5000;50.546;9.720;2024-01-15T18:00:09;96705.50;;;20.01;52.02
9923;BME280;5000;50.546;9.720;2024-01-15T18:05:02;96708.22;;;19.84;49.99
9923;BME280;5000;50.546;9.720;2024-01-15T18:09:57;96732.41;;;19.67;49.43
9923;BME280;5000;50.546;9.720;2024-01-15T18:14:50;96733.13;;;19.45;48.85
9923;BME280;5000;50.546;9.720;2024-01-15T18:19:43;96745.22;;;18.99;45.76
9923;BME280;5000;50.546;9.720;2024-01-15T18:24:36;96750.25;;;19.02;47.46
9923;BME280;5000;50.546;9.720;2024-01-15T18:29:30;96746.06;;;19.16;47.83
9923;BME280;5000;50.546;9.720;2024-01-15T18:34:23;96750.41;;;19.34;49.01
9923;BME280;5000;50.546;9.720;2024-01-15T18:39:16;96768.66;;;19.47;48.97
9923;BME280;5000;50.546;9.720;2024-01-15T18:44:09;96765.97;;;19.55;49.03
9923;BME280;5000;50.546;9.720;2024-01-15T18:49:04;96760.75;;;19.62;49.17
9923;BME280;5000;50.546;9.720;2024-01-15T18:53:57;96772.84;;;19.66;49.32
9923;BME280;5000;50.546;9.720;2024-01-15T18:58:50;96782.38;;;19.69;49.47
9923;BME280;5000;50.546;9.720;2024-01-15T19:03:44;96791.94;;;19.71;49.78
9923;BME280;5000;50.546;9.720;2024-01-15T19:08:38;96797.13;;;19.73;50.11
9923;BME280;5000;50.546;9.720;2024-01-15T19:13:32;96803.16;;;19.75;50.17
9923;BME280;5000;50.546;9.720;2024-01-15T19:18:25;96812.88;;;19.76;50.05
9923;BME280;5000;50.546;9.720;2024-01-15T19:23:19;96827.97;;;19.77;50.01
9923;BME280;5000;50.546;9.720;2024-01-15T19:28:13;96838.38;;;19.80;50.25
9923;BME280;5000;50.546;9.720;2024-01-15T19:33:06;96847.06;;;19.82;50.45
9923;BME280;5000;50.546;9.720;2024-01-15T19:37:59;96844.56;;;19.80;50.55
9923;BME280;5000;50.546;9.720;2024-01-15T19:42:53;96854.13;;;19.83;50.56
9923;BME280;5000;50.546;9.720;2024-01-15T19:47:47;96845.78;;;19.86;50.44
9923;BME280;5000;50.546;9.720;2024-01-15T19:52:41;96860.34;;;19.92;50.86
9923;BME280;5000;50.546;9.720;2024-01-15T19:57:33;96856.97;;;19.98;50.45
9923;BME280;5000;50.546;9.720;2024-01-15T20:02:27;96861.69;;;20.04;50.45
9923;BME280;5000;50.546;9.720;2024-01-15T20:07:21;96872.72;;;20.09;50.68
9923;BME280;5000;50.546;9.720;2024-01-15T20:12:14;96881.28;;;20.13;50.50
9923;BME280;5000;50.546;9.720;2024-01-15T20:17:07;96879.28;;;20.15;50.64
9923;BME280;5000;50.546;9.720;2024-01-15T20:22:00;96887.00;;;20.18;50.69
9923;BME280;5000;50.546;9.720;2024-01-15T20:26:54;96903.75;;;20.20;50.74
9923;BME280;5000;50.546;9.720;2024-01-15T20:31:47;96907.44;;;20.19;50.76
9923;BME280;5000;50.546;9.720;2024-01-15T20:36:40;96908.09;;;20.21;50.78
9923;BME280;5000;50.546;9.720;2024-01-15T20:41:33;96910.78;;;20.21;50.59
9923;BME280;5000;50.546;9.720;2024-01-15T20:46:28;96921.72;;;20.20;50.70
9923;BME280;5000;50.546;9.720;2024-01-15T20:51:21;96914.16;;;20.15;50.36
9923;BME280;5000;50.546;9.720;2024-01-15T20:56:14;96922.38;;;20.05;50.19
9923;BME280;5000;50.546;9.720;2024-01-15T21:01:07;96920.06;;;19.94;49.12
9923;BME280;5000;50.546;9.720;2024-01-15T21:06:02;96930.44;;;19.80;48.61
9923;BME280;5000;50.546;9.720;2024-01-15T21:10:55;96930.09;;;19.67;47.45
9923;BME280;5000;50.546;9.720;2024-01-15T21:15:48;96938.78;;;19.53;47.08
9923;BME280;5000;50.546;9.720;2024-01-15T21:20:41;96938.59;;;19.38;46.81
9923;BME280;5000;50.546;9.720;2024-01-15T21:25:35;96933.88;;;19.23;46.55
9923;BME280;5000;50.546;9.720;2024-01-15T21:30:28;96935.84;;;19.04;46.94
9923;BME280;5000;50.546;9.720;2024-01-15T21:35:24;96941.06;;;19.23;48.02
9923;BME280;5000;50.546;9.720;2024-01-15T21:40:17;96936.59;;;19.31;48.40
9923;BME280;5000;50.546;9.720;2024-01-15T21:45:12;96948.63;;;19.35;48.49
9923;BME280;5000;50.546;9.720;2024-01-15T21:50:05;96950.31;;;19.37;48.92
9923;BME280;5000;50.546;9.720;2024-01-15T21:54:58;96952.34;;;19.34;49.13
9923;BME280;5000;50.546;9.720;2024-01-15T21:59:51;96953.50;;;19.32;49.37
9923;BME280;5000;50.546;9.720;2024-01-15T22:04:45;96951.00;;;19.30;49.53
9923;BME280;5000;50.546;9.720;2024-01-15T22:09:38;96945.13;;;19.27;50.04
9923;BME280;5000;50.546;9.720;2024-01-15T22:14:32;96956.00;;;19.25;50.04
9923;BME280;5000;50.546;9.720;2024-01-15T22:19:24;96960.69;;;19.23;50.49
9923;BME280;5000;50.546;9.720;2024-01-15T22:24:19;96976.09;;;19.21;50.52
9923;BME280;5000;50.546;9.720;2024-01-15T22:29:11;96973.72;;;19.18;50.82
9923;BME280;5000;50.546;9.720;2024-01-15T22:34:04;96994.53;;;19.16;50.91
9923;BME280;5000;50.546;9.720;2024-01-15T22:38:57;97001.19;;;19.12;51.04
9923;BME280;5000;50.546;9.720;2024-01-15T22:43:52;97012.22;;;19.09;50.95
9923;BME280;5000;50.546;9.720;2024-01-15T22:48:45;97018.25;;;19.02;50.90
9923;BME280;5000;50.546;9.720;2024-01-15T22:53:38;97023.91;;;18.99;50.92
9923;BME280;5000;50.546;9.720;2024-01-15T22:58:31;97031.59;;;18.94;51.05
9923;BME280;5000;50.546;9.720;2024-01-15T23:03:25;97035.56;;;18.90;50.91
9923;BME280;5000;50.546;9.720;2024-01-15T23:08:18;97043.94;;;18.87;51.11
9923;BME280;5000;50.546;9.720;2024-01-15T23:13:11;97037.38;;;18.81;50.98
9923;BME280;5000;50.546;9.720;2024-01-15T23:18:05;97043.88;;;18.79;51.07
9923;BME280;5000;50.546;9.720;2024-01-15T23:23:00;97060.25;;;18.76;51.24
9923;BME280;5000;50.546;9.720;2024-01-15T23:27:53;97065.94;;;18.72;51.10
9923;BME280;5000;50.546;9.720;2024-01-15T23:32:46;97064.59;;;18.68;51.04
9923;BME280;5000;50.546;9.720;2024-01-15T23:37:40;97073.75;;;18.66;51.36
9923;BME280;5000;50.546;9.720;2024-01-15T23:42:34;97071.41;;;18.63;51.14
9923;BME280;5000;50.546;9.720;2024-01-15T23:47:27;97078.75;;;18.61;51.32
9923;BME280;5000;50.546;9.720;2024-01-15T23:52:20;97075.53;;;18.57;51.45
9923;BME280;5000;50.546;9.720;2024-01-15T23:57:13;97077.53;;;18.55;51.54
